createdAt,value
2023-03-15T00:00:17.964Z,169.20
2023-03-15T00:01:17.953Z,167.92
2023-03-15T00:02:17.970Z,171.23
2023-03-15T00:03:17.973Z,168.79
2023-03-15T00:04:17.936Z,167.41
2023-03-15T00:05:17.835Z,168.12
2023-03-15T00:06:17.888Z,167.48
2023-03-15T00:07:17.854Z,167.49
2023-03-15T00:08:17.748Z,168.91
2023-03-15T00:09:17.787Z,169.59
2023-03-15T00:10:17.690Z,170.83
2023-03-15T00:11:17.790Z,169.61
2023-03-15T00:12:17.676Z,168.57
2023-03-15T00:13:17.636Z,169.50
2023-03-15T00:14:17.675Z,170.93
2023-03-15T00:15:17.565Z,170.24
2023-03-15T00:16:17.880Z,168.76
2023-03-15T00:17:17.574Z,168.90
2023-03-15T00:18:17.499Z,168.81
2023-03-15T00:19:17.500Z,166.70
2023-03-15T00:20:17.485Z,166.73
2023-03-15T00:21:17.439Z,168.02
2023-03-15T00:22:17.485Z,167.92
2023-03-15T00:23:17.374Z,166.93
2023-03-15T00:24:17.444Z,169.35
2023-03-15T00:25:17.366Z,169.66
2023-03-15T00:26:17.286Z,168.79
2023-03-15T00:27:17.296Z,168.34
2023-03-15T00:28:17.281Z,166.62
2023-03-15T00:29:17.219Z,167.57
2023-03-15T00:30:17.220Z,167.99
2023-03-15T00:31:17.255Z,167.76
2023-03-15T00:32:17.128Z,171.27
2023-03-15T00:33:17.111Z,171.01
2023-03-15T00:34:17.155Z,172.08
2023-03-15T00:35:17.067Z,171.34
2023-03-15T00:36:17.081Z,172.60
2023-03-15T00:37:17.036Z,172.65
2023-03-15T00:38:16.988Z,172.84
2023-03-15T00:39:16.960Z,172.72
2023-03-15T00:40:16.982Z,171.46
2023-03-15T00:41:16.939Z,172.85
2023-03-15T00:42:16.987Z,172.75
2023-03-15T00:43:16.954Z,172.75
2023-03-15T00:44:16.932Z,175.04
2023-03-15T00:45:16.883Z,173.99
2023-03-15T00:46:16.859Z,175.66
2023-03-15T00:47:16.775Z,176.42
2023-03-15T00:48:16.758Z,177.22
2023-03-15T00:49:16.758Z,177.17
2023-03-15T00:50:16.772Z,178.96
2023-03-15T00:51:16.682Z,178.73
2023-03-15T00:52:16.666Z,179.30
2023-03-15T00:53:16.663Z,180.87
2023-03-15T00:54:16.634Z,181.00
2023-03-15T00:55:16.610Z,180.93
2023-03-15T00:56:16.636Z,181.21
2023-03-15T00:57:16.589Z,181.64
2023-03-15T00:58:16.585Z,183.80
2023-03-15T00:59:16.612Z,183.62
2023-03-15T01:00:16.507Z,184.47
2023-03-15T01:01:16.475Z,185.01
2023-03-15T01:02:16.469Z,183.01
2023-03-15T01:03:16.501Z,184.27
2023-03-15T01:04:16.430Z,185.40
2023-03-15T01:05:16.435Z,185.01
2023-03-15T01:06:16.382Z,185.47
2023-03-15T01:07:16.386Z,186.25
2023-03-15T01:08:16.308Z,188.25
2023-03-15T01:09:16.297Z,186.92
2023-03-15T01:10:16.340Z,186.39
2023-03-15T01:11:16.234Z,186.89
2023-03-15T01:12:16.205Z,186.87
2023-03-15T01:13:16.179Z,188.05
2023-03-15T01:14:16.214Z,187.16
2023-03-15T01:15:16.161Z,188.68
2023-03-15T01:16:16.185Z,188.09
2023-03-15T01:17:16.100Z,190.39
2023-03-15T01:18:16.076Z,190.25
2023-03-15T01:19:16.075Z,189.80
2023-03-15T01:20:16.072Z,190.28
2023-03-15T01:21:16.032Z,190.43
2023-03-15T01:22:16.006Z,190.52
2023-03-15T01:23:16.853Z,189.87
2023-03-15T01:24:15.971Z,188.86
2023-03-15T01:25:15.939Z,190.46
2023-03-15T01:26:15.933Z,186.94
2023-03-15T01:27:15.890Z,186.96
2023-03-15T01:28:15.936Z,185.07
2023-03-15T01:29:15.952Z,186.02
2023-03-15T01:30:15.841Z,185.45
2023-03-15T01:31:15.838Z,182.29
2023-03-15T01:32:15.758Z,181.37
2023-03-15T01:33:15.827Z,181.42
2023-03-15T01:34:15.709Z,181.57
2023-03-15T01:35:15.687Z,181.98
2023-03-15T01:36:15.725Z,182.29
2023-03-15T01:37:15.642Z,182.20
2023-03-15T01:38:15.637Z,179.61
2023-03-15T01:39:15.640Z,180.76
2023-03-15T01:40:15.630Z,180.70
2023-03-15T01:41:15.562Z,179.04
2023-03-15T01:42:15.575Z,179.78
2023-03-15T01:43:15.518Z,180.29
2023-03-15T01:44:15.463Z,181.10
2023-03-15T01:45:15.469Z,182.34
2023-03-15T01:46:15.521Z,180.81
2023-03-15T01:47:15.423Z,180.98
2023-03-15T01:48:15.441Z,180.98
2023-03-15T01:49:15.370Z,180.97
2023-03-15T01:50:15.400Z,181.15
2023-03-15T01:51:15.351Z,181.80
2023-03-15T01:52:15.441Z,180.94
2023-03-15T01:53:15.295Z,181.05
2023-03-15T01:54:15.291Z,181.42
2023-03-15T01:55:15.341Z,182.53
2023-03-15T01:56:15.234Z,183.82
2023-03-15T01:57:15.235Z,184.09
2023-03-15T01:58:15.182Z,187.40
2023-03-15T01:59:15.161Z,185.86
2023-03-15T02:00:15.210Z,185.97
2023-03-15T02:01:15.165Z,186.60
2023-03-15T02:02:15.200Z,186.07
2023-03-15T02:03:15.108Z,185.15
2023-03-15T02:04:15.045Z,185.47
2023-03-15T02:05:15.006Z,182.42
2023-03-15T02:06:15.035Z,181.97
2023-03-15T02:07:14.976Z,183.28
2023-03-15T02:08:14.941Z,184.76
2023-03-15T02:09:15.059Z,183.03
2023-03-15T02:10:14.910Z,183.16
2023-03-15T02:11:14.891Z,183.09
2023-03-15T02:12:14.852Z,183.17
2023-03-15T02:13:14.854Z,183.76
2023-03-15T02:14:14.815Z,182.93
2023-03-15T02:15:14.843Z,182.19
2023-03-15T02:16:14.879Z,182.46
2023-03-15T02:17:14.749Z,181.91
2023-03-15T02:18:14.746Z,181.55
2023-03-15T02:19:14.742Z,182.72
2023-03-15T02:20:14.692Z,181.26
2023-03-15T02:21:14.732Z,181.96
2023-03-15T02:22:14.700Z,180.10
2023-03-15T02:23:14.775Z,181.06
2023-03-15T02:24:14.624Z,180.09
2023-03-15T02:25:14.591Z,182.17
2023-03-15T02:26:14.574Z,180.04
2023-03-15T02:27:14.618Z,180.15
2023-03-15T02:28:14.534Z,180.12
2023-03-15T02:29:14.544Z,180.95
2023-03-15T02:30:14.475Z,180.22
2023-03-15T02:31:14.517Z,180.28
2023-03-15T02:32:14.469Z,180.91
2023-03-15T02:33:14.397Z,180.19
2023-03-15T02:34:14.400Z,180.09
2023-03-15T02:35:14.446Z,180.65
2023-03-15T02:36:14.393Z,180.84
2023-03-15T02:37:14.416Z,180.34
2023-03-15T02:38:14.333Z,180.46
2023-03-15T02:39:14.283Z,179.81
2023-03-15T02:40:14.274Z,181.38
2023-03-15T02:41:14.297Z,181.87
2023-03-15T02:42:14.250Z,180.38
2023-03-15T02:43:14.209Z,179.21
2023-03-15T02:44:14.240Z,180.24
2023-03-15T02:45:14.184Z,181.00
2023-03-15T02:46:14.256Z,181.08
2023-03-15T02:47:14.125Z,180.25
2023-03-15T02:48:14.102Z,179.82
2023-03-15T02:49:14.080Z,181.22
2023-03-15T02:50:14.083Z,181.10
2023-03-15T02:51:14.088Z,179.34
2023-03-15T02:52:14.174Z,180.48
2023-03-15T02:53:14.009Z,179.63
2023-03-15T02:54:13.987Z,179.94
2023-03-15T02:55:13.965Z,181.16
2023-03-15T02:56:13.946Z,180.25
2023-03-15T02:57:13.992Z,179.32
2023-03-15T02:58:13.893Z,180.26
2023-03-15T02:59:13.859Z,178.55
2023-03-15T03:00:13.886Z,175.98
2023-03-15T03:01:13.865Z,178.53
2023-03-15T03:02:13.846Z,176.64
2023-03-15T03:03:13.826Z,178.40
2023-03-15T03:04:13.764Z,177.10
2023-03-15T03:05:13.732Z,179.29
2023-03-15T03:06:13.722Z,178.07
2023-03-15T03:07:13.716Z,176.25
2023-03-15T03:08:13.651Z,178.87
2023-03-15T03:09:13.647Z,173.64
2023-03-15T03:10:13.608Z,175.23
2023-03-15T03:11:13.648Z,172.31
2023-03-15T03:12:13.586Z,172.20
2023-03-15T03:13:13.550Z,173.39
2023-03-15T03:14:13.565Z,172.83
2023-03-15T03:15:13.502Z,170.07
2023-03-15T03:16:13.555Z,169.66
2023-03-15T03:17:13.537Z,161.64
2023-03-15T03:18:13.448Z,153.00
2023-03-15T03:19:13.529Z,140.18
2023-03-15T03:20:13.446Z,122.30
2023-03-15T03:21:13.387Z,106.60
2023-03-15T03:22:13.568Z,94.50
2023-03-15T03:23:13.358Z,83.58
2023-03-15T03:24:13.359Z,72.58
2023-03-15T03:25:13.356Z,61.26
2023-03-15T03:26:13.354Z,54.52
2023-03-15T03:27:13.299Z,52.44
2023-03-15T03:28:13.355Z,37.41
2023-03-15T03:29:13.332Z,26.21
2023-03-15T03:30:13.272Z,24.36
2023-03-15T03:31:13.305Z,25.00
2023-03-15T03:32:13.231Z,15.35
2023-03-15T03:33:13.250Z,14.10
2023-03-15T03:34:13.216Z,15.45
2023-03-15T03:35:15.587Z,7.47
2023-03-15T03:36:13.272Z,11.24
2023-03-15T03:37:13.270Z,20.65
2023-03-15T03:38:13.204Z,25.00
2023-03-15T03:39:13.194Z,26.63
2023-03-15T03:40:13.170Z,25.00
2023-03-15T03:41:13.168Z,27.82
2023-03-15T03:42:13.349Z,35.37
2023-03-15T03:43:13.128Z,27.58
2023-03-15T03:44:13.220Z,37.35
2023-03-15T03:45:13.145Z,26.92
2023-03-15T03:46:13.236Z,28.78
2023-03-15T03:47:13.169Z,28.63
2023-03-15T03:48:13.172Z,28.29
2023-03-15T03:49:13.120Z,36.28
2023-03-15T03:50:13.109Z,25.04
2023-03-15T03:51:13.124Z,23.50
2023-03-15T03:52:13.067Z,33.44
2023-03-15T03:53:13.070Z,37.85
2023-03-15T03:54:13.025Z,44.39
2023-03-15T03:55:13.007Z,51.70
2023-03-15T03:56:13.031Z,50.35
2023-03-15T03:57:13.060Z,50.40
2023-03-15T03:58:13.146Z,51.50
2023-03-15T03:59:12.942Z,54.65
2023-03-15T04:00:12.950Z,59.76
2023-03-15T04:01:12.983Z,65.49
2023-03-15T04:02:12.957Z,69.96
2023-03-15T04:03:12.965Z,68.70
2023-03-15T04:04:13.016Z,72.58
2023-03-15T04:05:12.891Z,76.38
2023-03-15T04:06:12.857Z,79.61
2023-03-15T04:07:12.840Z,81.08
2023-03-15T04:08:12.875Z,81.91
2023-03-15T04:09:12.812Z,86.68
2023-03-15T04:10:12.792Z,90.68
2023-03-15T04:11:12.817Z,91.78
2023-03-15T04:12:12.785Z,101.29
2023-03-15T04:13:12.834Z,101.61
2023-03-15T04:14:12.727Z,98.55
2023-03-15T04:15:12.703Z,102.21
2023-03-15T04:16:12.762Z,108.18
2023-03-15T04:17:12.670Z,111.38
2023-03-15T04:18:12.662Z,112.53
2023-03-15T04:19:12.630Z,118.38
2023-03-15T04:20:12.651Z,120.97
2023-03-15T04:21:12.581Z,119.62
2023-03-15T04:22:12.574Z,121.09
2023-03-15T04:23:12.550Z,123.02
2023-03-15T04:24:12.539Z,126.01
2023-03-15T04:25:12.534Z,128.45
2023-03-15T04:26:12.497Z,129.22
2023-03-15T04:27:12.472Z,129.64
2023-03-15T04:28:12.495Z,134.81
2023-03-15T04:29:12.466Z,136.97
2023-03-15T04:30:12.441Z,137.94
2023-03-15T04:31:12.492Z,138.65
2023-03-15T04:32:12.391Z,140.07
2023-03-15T04:33:12.388Z,139.50
2023-03-15T04:34:12.380Z,140.80
2023-03-15T04:35:12.395Z,141.36
2023-03-15T04:36:12.378Z,142.19
2023-03-15T04:37:12.323Z,138.71
2023-03-15T04:38:12.306Z,134.92
2023-03-15T04:39:12.302Z,133.94
2023-03-15T04:40:12.268Z,131.44
2023-03-15T04:41:12.270Z,123.74
2023-03-15T04:42:12.286Z,108.10
2023-03-15T04:43:12.273Z,108.38
2023-03-15T04:44:12.211Z,105.13
2023-03-15T04:45:12.189Z,105.56
2023-03-15T04:46:12.172Z,101.50
2023-03-15T04:47:12.179Z,97.26
2023-03-15T04:48:12.195Z,83.51
2023-03-15T04:49:12.150Z,85.10
2023-03-15T04:50:12.144Z,73.75
2023-03-15T04:51:12.120Z,70.79
2023-03-15T04:52:12.144Z,69.88
2023-03-15T04:53:12.148Z,64.83
2023-03-15T04:54:12.078Z,59.01
2023-03-15T04:55:12.084Z,56.20
2023-03-15T04:56:12.057Z,57.75
2023-03-15T04:57:12.062Z,51.01
2023-03-15T04:58:12.039Z,43.30
2023-03-15T04:59:12.078Z,32.45
2023-03-15T05:00:12.048Z,42.11
2023-03-15T05:01:12.096Z,43.40
2023-03-15T05:02:12.067Z,43.14
2023-03-15T05:03:11.982Z,40.44
2023-03-15T05:04:11.998Z,38.29
2023-03-15T05:05:11.957Z,30.84
2023-03-15T05:06:11.946Z,16.44
2023-03-15T05:07:11.906Z,27.93
2023-03-15T05:08:11.988Z,28.50
2023-03-15T05:09:11.903Z,28.44
2023-03-15T05:10:11.900Z,28.51
2023-03-15T05:11:11.937Z,25.21
2023-03-15T05:12:11.851Z,25.00
2023-03-15T05:13:11.849Z,25.48
2023-03-15T05:14:11.895Z,29.78
2023-03-15T05:15:11.865Z,33.50
2023-03-15T05:16:11.859Z,32.52
2023-03-15T05:17:11.779Z,34.99
2023-03-15T05:18:11.815Z,39.34
2023-03-15T05:19:11.754Z,37.07
2023-03-15T05:20:11.772Z,38.18
2023-03-15T05:21:11.777Z,36.10
2023-03-15T05:22:11.720Z,35.99
2023-03-15T05:23:11.707Z,36.43
2023-03-15T05:24:11.848Z,31.24
2023-03-15T05:25:11.713Z,34.01
2023-03-15T07:59:08.872Z,201.53
2023-03-15T08:00:08.835Z,203.71
2023-03-15T08:01:08.769Z,206.23
2023-03-15T08:02:08.795Z,210.35
2023-03-15T08:03:08.756Z,212.40
2023-03-15T08:04:08.589Z,212.35
2023-03-15T08:05:08.573Z,214.85
2023-03-15T08:06:08.640Z,215.05
2023-03-15T08:07:08.507Z,215.14
2023-03-15T08:08:08.978Z,216.56
2023-03-15T08:09:08.405Z,215.74
2023-03-15T08:10:09.018Z,211.10
2023-03-15T08:11:08.311Z,209.76
2023-03-15T08:12:08.339Z,211.22
2023-03-15T08:13:08.265Z,215.93
2023-03-15T08:14:08.160Z,208.41
2023-03-15T08:15:08.159Z,208.68
2023-03-15T08:16:08.560Z,210.29
2023-03-15T08:17:08.066Z,214.59
2023-03-15T08:18:08.015Z,204.53
2023-03-15T08:19:08.082Z,190.29
2023-03-15T08:20:08.094Z,182.47
2023-03-15T08:21:07.910Z,177.45
2023-03-15T08:22:08.091Z,175.89
2023-03-15T08:23:07.873Z,171.60
2023-03-15T08:24:07.823Z,170.36
2023-03-15T08:25:07.716Z,163.08
2023-03-15T08:26:08.485Z,156.25
2023-03-15T08:27:07.636Z,150.70
2023-03-15T08:28:07.586Z,142.13
2023-03-15T08:29:07.577Z,141.22
2023-03-15T08:30:07.476Z,133.07
2023-03-15T08:31:07.909Z,127.49
2023-03-15T08:32:07.612Z,119.73
2023-03-15T08:33:08.402Z,110.10
2023-03-15T08:34:07.409Z,98.75
2023-03-15T08:35:07.334Z,92.83
2023-03-15T08:36:07.357Z,108.71
2023-03-15T08:37:07.723Z,115.54
2023-03-15T08:38:07.233Z,126.30
2023-03-15T08:39:07.149Z,128.64
2023-03-15T08:40:07.120Z,129.75
2023-03-15T08:41:07.049Z,137.83
2023-03-15T08:42:07.276Z,142.72
2023-03-15T08:43:06.973Z,149.66
2023-03-15T08:44:06.963Z,155.51
2023-03-15T08:45:06.940Z,158.84
2023-03-15T08:46:06.879Z,164.50
2023-03-15T08:47:06.817Z,168.58
2023-03-15T08:48:06.731Z,168.76
2023-03-15T08:49:06.719Z,169.86
2023-03-15T08:50:06.700Z,173.14
2023-03-15T08:51:06.630Z,178.60
2023-03-15T08:52:06.565Z,169.27
2023-03-15T08:53:06.595Z,170.41
2023-03-15T08:54:06.550Z,171.59
2023-03-15T08:55:06.429Z,168.94
2023-03-15T08:56:06.431Z,170.32
2023-03-15T08:57:06.525Z,171.61
2023-03-15T08:58:06.320Z,175.23
2023-03-15T08:59:07.006Z,183.20
2023-03-15T09:00:06.254Z,183.91
2023-03-15T09:01:06.167Z,179.00
2023-03-15T09:02:06.258Z,181.29
2023-03-15T09:03:06.105Z,184.38
2023-03-15T09:04:06.076Z,183.85
2023-03-15T09:05:06.027Z,186.64
2023-03-15T09:06:06.057Z,193.74
2023-03-15T09:07:05.936Z,188.68
2023-03-15T09:08:05.895Z,191.87
2023-03-15T09:09:05.868Z,190.38
2023-03-15T09:10:05.846Z,192.20
2023-03-15T09:11:05.740Z,193.85
2023-03-15T09:12:05.705Z,187.82
2023-03-15T09:13:06.490Z,196.02
2023-03-15T09:14:05.616Z,195.49
2023-03-15T09:15:07.565Z,197.46
2023-03-15T09:16:05.506Z,203.03
2023-03-15T09:17:06.118Z,210.12
2023-03-15T09:18:05.407Z,218.89
2023-03-15T09:19:05.433Z,224.12
2023-03-15T09:20:05.299Z,217.70
2023-03-15T09:21:05.278Z,220.46
2023-03-15T09:22:16.868Z,218.85
2023-03-15T09:23:06.175Z,214.96
2023-03-15T09:24:05.121Z,209.64
2023-03-15T09:25:05.163Z,215.13
2023-03-15T09:26:05.049Z,218.88
2023-03-15T09:27:05.068Z,219.89
2023-03-15T09:28:04.969Z,219.00
2023-03-15T09:29:04.925Z,219.94
2023-03-15T09:30:04.902Z,221.08
2023-03-15T09:31:04.838Z,223.59
2023-03-15T09:32:04.761Z,219.17
2023-03-15T09:33:04.862Z,220.17
2023-03-15T09:34:04.663Z,221.87
2023-03-15T09:35:04.649Z,226.32
2023-03-15T09:36:04.805Z,230.52
2023-03-15T09:37:04.490Z,227.36
2023-03-15T09:38:04.481Z,230.85
2023-03-15T09:39:04.402Z,230.99
2023-03-15T09:40:04.375Z,229.79
2023-03-15T09:41:04.359Z,231.95
2023-03-15T09:42:06.461Z,232.89
2023-03-15T09:43:04.239Z,233.84
2023-03-15T09:44:04.291Z,230.22
2023-03-15T09:45:04.159Z,231.44
2023-03-15T09:46:04.126Z,231.89
2023-03-15T09:47:04.062Z,228.18
2023-03-15T09:48:04.518Z,230.60
2023-03-15T09:49:03.898Z,230.16
2023-03-15T09:50:03.963Z,217.12
2023-03-15T09:51:03.807Z,76.30
2023-03-15T09:52:03.773Z,0.00
2023-03-15T09:53:03.737Z,0.00
2023-03-15T09:54:03.714Z,0.00
2023-03-15T09:55:03.782Z,0.00
2023-03-15T09:56:03.694Z,0.00
2023-03-15T09:57:03.644Z,0.00
2023-03-15T09:58:03.649Z,0.00
2023-03-15T09:59:03.657Z,0.00
2023-03-15T10:00:03.619Z,0.00
2023-03-15T10:01:03.586Z,0.00
2023-03-15T10:02:03.599Z,0.00
2023-03-15T10:03:03.567Z,0.00
2023-03-15T10:04:03.571Z,0.00
2023-03-15T10:05:03.509Z,0.00
2023-03-15T10:06:03.529Z,0.00
2023-03-15T10:07:03.515Z,0.00
2023-03-15T10:08:03.573Z,0.00
2023-03-15T10:09:03.485Z,0.00
2023-03-15T10:10:03.490Z,0.00
2023-03-15T10:11:03.512Z,0.00
2023-03-15T10:12:03.552Z,0.00
2023-03-15T10:13:03.444Z,0.00
2023-03-15T10:14:03.461Z,0.00
2023-03-15T10:15:03.431Z,0.00
2023-03-15T10:16:03.693Z,1.30
2023-03-15T10:17:03.430Z,6.60
2023-03-15T10:18:03.436Z,11.86
2023-03-15T10:19:03.482Z,13.65
2023-03-15T10:20:03.531Z,19.14
2023-03-15T10:21:03.407Z,27.44
2023-03-15T10:22:03.391Z,27.80
2023-03-15T10:23:03.426Z,25.63
2023-03-15T10:24:03.375Z,25.00
2023-03-15T10:25:03.396Z,25.03
2023-03-15T10:26:03.344Z,25.49
2023-03-15T10:27:03.444Z,29.87
2023-03-15T10:28:03.419Z,28.62
2023-03-15T10:29:03.365Z,26.72
2023-03-15T10:30:03.383Z,25.52
2023-03-15T10:31:03.397Z,25.12
2023-03-15T10:32:03.338Z,26.47
2023-03-15T10:33:03.631Z,30.63
2023-03-15T10:34:03.380Z,32.21
2023-03-15T10:35:03.334Z,31.03
2023-03-15T10:36:11.717Z,29.62
2023-03-15T10:37:07.069Z,29.64
2023-03-15T10:38:03.356Z,28.78
2023-03-15T10:39:03.330Z,29.94
2023-03-15T10:40:03.962Z,30.76
2023-03-15T10:41:03.343Z,39.58
2023-03-15T10:42:03.329Z,62.77
2023-03-15T10:43:03.339Z,77.44
2023-03-15T10:44:03.356Z,92.77
2023-03-15T10:45:03.316Z,101.00
2023-03-15T10:46:03.391Z,104.13
2023-03-15T10:47:12.992Z,104.67
2023-03-15T10:48:04.303Z,104.71
2023-03-15T10:49:03.303Z,105.93
2023-03-15T10:50:03.212Z,108.16
2023-03-15T10:51:03.226Z,112.14
2023-03-15T10:52:03.176Z,119.17
2023-03-15T10:53:04.072Z,123.69
2023-03-15T10:54:03.187Z,125.93
2023-03-15T10:55:04.523Z,131.09
2023-03-15T10:56:03.116Z,132.83
2023-03-15T10:57:03.140Z,136.27
2023-03-15T10:58:03.102Z,137.47
2023-03-15T10:59:12.434Z,141.88
2023-03-15T11:00:04.138Z,141.94
2023-03-15T11:01:03.002Z,142.54
2023-03-15T11:02:02.983Z,144.93
2023-03-15T11:03:03.020Z,149.43
2023-03-15T11:04:02.960Z,157.01
2023-03-15T11:05:02.938Z,161.00
2023-03-15T11:06:02.856Z,162.89
2023-03-15T11:07:02.870Z,165.12
2023-03-15T11:08:02.840Z,168.19
2023-03-15T11:09:02.797Z,168.71
2023-03-15T11:10:02.807Z,172.20
2023-03-15T11:11:02.730Z,172.99
2023-03-15T11:12:02.685Z,174.85
2023-03-15T11:13:03.536Z,176.54
2023-03-15T11:14:02.699Z,176.69
2023-03-15T11:15:02.603Z,177.66
2023-03-15T11:16:02.719Z,181.13
2023-03-15T11:17:02.584Z,182.76
2023-03-15T11:18:02.557Z,188.07
2023-03-15T11:19:02.561Z,189.74
2023-03-15T11:20:02.491Z,189.69
2023-03-15T11:21:02.475Z,193.13
2023-03-15T11:22:02.436Z,196.17
2023-03-15T11:23:02.391Z,196.17
2023-03-15T11:24:02.376Z,196.64
2023-03-15T11:25:02.473Z,199.83
2023-03-15T11:26:02.295Z,200.14
2023-03-15T11:27:02.271Z,200.58
2023-03-15T11:28:02.236Z,203.94
2023-03-15T11:29:02.232Z,207.33
2023-03-15T11:30:02.448Z,205.72
2023-03-15T11:31:02.123Z,205.73
2023-03-15T11:32:02.103Z,205.77
2023-03-15T11:33:02.272Z,206.55
2023-03-15T11:34:02.132Z,210.69
2023-03-15T11:35:01.986Z,213.60
2023-03-15T11:36:02.099Z,215.93
2023-03-15T11:37:08.373Z,215.65
2023-03-15T11:38:14.676Z,215.69
2023-03-15T11:39:03.198Z,215.91
2023-03-15T11:40:11.274Z,216.38
2023-03-15T11:41:02.837Z,215.82
2023-03-15T11:42:01.776Z,216.33
2023-03-15T11:43:01.734Z,215.75
2023-03-15T11:45:02.540Z,217.88
2023-03-15T12:06:03.701Z,235.66
2023-03-15T14:22:04.922Z,242.15
2023-03-15T15:43:54.840Z,242.85
2023-03-15T15:44:54.664Z,242.91
2023-03-15T15:45:54.626Z,243.60
2023-03-15T15:46:55.193Z,243.41
2023-03-15T15:47:54.676Z,243.02
2023-03-15T15:48:55.151Z,244.18
2023-03-15T15:49:54.583Z,244.24
2023-03-15T15:50:55.132Z,243.03
2023-03-15T15:51:54.440Z,243.78
2023-03-15T15:52:54.608Z,242.91
2023-03-15T15:53:54.375Z,242.04
2023-03-15T15:54:54.357Z,241.86
2023-03-15T15:55:54.311Z,241.87
2023-03-15T15:56:54.349Z,242.94
2023-03-15T15:57:55.717Z,242.19
2023-03-15T15:58:54.252Z,242.04
2023-03-15T15:59:54.256Z,241.66
2023-03-15T16:00:54.217Z,241.62
2023-03-15T16:02:00.549Z,241.39
2023-03-15T16:02:55.186Z,241.43
2023-03-15T16:03:54.162Z,241.61
2023-03-15T16:04:54.078Z,241.42
2023-03-15T16:05:54.146Z,240.87
2023-03-15T16:06:54.024Z,242.07
2023-03-15T16:07:54.053Z,242.37
2023-03-15T16:08:53.985Z,242.55
2023-03-15T16:09:55.401Z,240.96
2023-03-15T16:10:53.933Z,240.57
2023-03-15T16:11:53.961Z,241.14
2023-03-15T16:12:53.887Z,241.48
2023-03-15T16:13:53.883Z,241.38
2023-03-15T16:14:53.828Z,241.34
2023-03-15T16:15:53.950Z,240.85
2023-03-15T16:16:53.769Z,241.03
2023-03-15T16:17:53.731Z,241.45
2023-03-15T16:18:53.721Z,240.89
2023-03-15T16:19:53.756Z,240.82
2023-03-15T16:20:53.663Z,242.02
2023-03-15T16:21:53.665Z,240.57
2023-03-15T16:22:53.704Z,241.30
2023-03-15T16:23:53.591Z,242.19
2023-03-15T16:24:53.568Z,242.19
2023-03-15T16:25:53.546Z,242.35
2023-03-15T16:26:53.558Z,240.48
2023-03-15T16:27:53.529Z,241.06
2023-03-15T16:28:53.474Z,241.72
2023-03-15T16:29:53.438Z,242.34
2023-03-15T16:30:53.488Z,242.88
2023-03-15T16:31:54.719Z,242.30
2023-03-15T16:32:53.455Z,242.51
2023-03-15T16:33:53.370Z,242.29
2023-03-15T16:34:53.380Z,242.24
2023-03-15T16:35:53.442Z,242.29
2023-03-15T16:36:53.291Z,243.80
2023-03-15T16:37:53.280Z,243.19
2023-03-15T16:38:53.259Z,242.43
2023-03-15T16:39:53.225Z,241.99
2023-03-15T16:40:53.297Z,241.48
2023-03-15T16:41:53.255Z,241.85
2023-03-15T16:42:53.135Z,242.73
2023-03-15T16:43:53.144Z,241.78
2023-03-15T16:44:53.096Z,241.39
2023-03-15T16:45:53.079Z,241.38
2023-03-15T16:46:53.125Z,241.86
2023-03-15T16:47:53.076Z,241.88
2023-03-15T16:48:53.072Z,241.99
2023-03-15T16:49:53.010Z,241.14
2023-03-15T16:50:52.985Z,241.05
2023-03-15T16:51:53.022Z,240.04
2023-03-15T16:52:52.998Z,240.54
2023-03-15T16:54:02.248Z,241.54
2023-03-15T16:54:53.947Z,241.57
2023-03-15T16:55:52.929Z,241.61
2023-03-15T16:56:52.926Z,241.62
2023-03-15T16:57:52.899Z,242.40
2023-03-15T16:58:52.892Z,241.86
2023-03-15T16:59:52.880Z,243.22
2023-03-15T17:00:52.854Z,244.77
2023-03-15T17:01:52.840Z,244.36
2023-03-15T17:02:52.831Z,242.81
2023-03-15T17:03:52.846Z,243.21
2023-03-15T17:04:52.828Z,242.68
2023-03-15T17:05:52.789Z,241.79
2023-03-15T17:06:52.823Z,241.28
2023-03-15T17:07:52.767Z,240.04
2023-03-15T17:08:52.750Z,241.28
2023-03-15T17:09:52.787Z,241.74
2023-03-15T17:10:52.709Z,241.33
2023-03-15T17:11:52.642Z,241.59
2023-03-15T17:12:52.632Z,241.46
2023-03-15T17:13:52.602Z,240.99
2023-03-15T17:14:52.607Z,240.42
2023-03-15T17:15:52.636Z,240.43
2023-03-15T17:16:52.556Z,241.30
2023-03-15T17:17:52.553Z,241.09
2023-03-15T17:18:52.546Z,241.82
2023-03-15T17:19:52.525Z,242.28
2023-03-15T17:20:52.501Z,242.44
2023-03-15T17:21:52.497Z,243.36
2023-03-15T17:22:52.453Z,243.19
2023-03-15T17:23:52.499Z,242.62
2023-03-15T17:24:52.421Z,241.46
2023-03-15T17:25:52.418Z,241.82
2023-03-15T17:26:52.392Z,241.45
2023-03-15T17:27:52.456Z,240.43
2023-03-15T17:28:52.368Z,240.18
2023-03-15T17:29:52.351Z,240.01
2023-03-15T17:30:59.847Z,240.62
2023-03-15T17:31:53.340Z,240.64
2023-03-15T17:32:52.368Z,240.73
2023-03-15T17:33:52.310Z,241.29
2023-03-15T17:34:52.265Z,241.28
2023-03-15T17:35:52.294Z,240.70
2023-03-15T17:36:52.237Z,240.40
2023-03-15T17:37:52.233Z,241.80
2023-03-15T17:38:52.217Z,241.85
2023-03-15T17:39:52.203Z,241.90
2023-03-15T17:40:52.209Z,242.01
2023-03-15T17:41:52.183Z,242.26
2023-03-15T17:42:52.190Z,240.66
2023-03-15T17:43:52.138Z,241.74
2023-03-15T17:44:52.146Z,242.36
2023-03-15T17:45:52.110Z,242.09
2023-03-15T17:46:52.172Z,243.53
2023-03-15T17:47:52.077Z,244.43
2023-03-15T17:48:52.046Z,244.71
2023-03-15T17:49:52.050Z,244.98
2023-03-15T17:50:52.021Z,245.70
2023-03-15T17:51:52.043Z,246.20
2023-03-15T17:52:52.001Z,246.05
2023-03-15T17:53:51.953Z,246.20
2023-03-15T17:54:51.980Z,245.92
2023-03-15T17:55:51.919Z,245.50
2023-03-15T17:56:51.925Z,245.26
2023-03-15T17:57:55.060Z,245.30
2023-03-15T17:58:51.901Z,245.30
2023-03-15T17:59:51.865Z,245.07
2023-03-15T18:00:51.888Z,245.02
2023-03-15T18:01:51.915Z,245.32
2023-03-15T18:02:56.196Z,245.13
2023-03-15T18:03:51.818Z,245.32
2023-03-15T18:04:51.767Z,243.62
2023-03-15T18:06:51.735Z,242.95
2023-03-15T18:07:58.582Z,243.16
2023-03-15T18:09:51.773Z,243.04
2023-03-15T18:38:51.772Z,238.90
2023-03-15T19:15:50.384Z,238.82
2023-03-15T19:16:50.429Z,238.56
2023-03-15T19:17:50.356Z,240.08
2023-03-15T19:18:50.314Z,239.55
2023-03-15T19:19:50.279Z,238.85
2023-03-15T19:21:50.273Z,238.41
2023-03-15T19:22:50.266Z,239.23
2023-03-15T19:23:50.219Z,239.25
2023-03-15T19:24:50.192Z,239.22
2023-03-15T19:25:50.202Z,238.87
2023-03-15T19:26:50.162Z,237.46
2023-03-15T19:27:50.132Z,238.47
2023-03-15T19:28:50.088Z,238.64
2023-03-15T19:29:50.064Z,237.66
2023-03-15T19:30:50.107Z,238.09
2023-03-15T19:31:50.009Z,238.61
2023-03-15T19:32:50.315Z,239.44
2023-03-15T19:33:49.979Z,238.64
2023-03-15T19:34:49.957Z,238.83
2023-03-15T19:35:49.999Z,238.87
2023-03-15T19:36:49.883Z,238.69
2023-03-15T19:37:49.876Z,238.68
2023-03-15T19:38:49.850Z,238.47
2023-03-15T19:39:49.829Z,238.30
2023-03-15T19:40:49.836Z,237.93
2023-03-15T19:41:49.760Z,237.82
2023-03-15T19:42:49.728Z,239.31
2023-03-15T19:43:49.706Z,238.98
2023-03-15T19:44:49.680Z,237.80
2023-03-15T19:45:49.773Z,237.99
2023-03-15T19:46:49.681Z,238.59
2023-03-15T19:47:49.627Z,238.76
2023-03-15T19:48:49.616Z,238.55
2023-03-15T19:49:49.570Z,238.82
2023-03-15T19:50:49.562Z,237.96
2023-03-15T19:51:49.532Z,238.17
2023-03-15T19:52:49.496Z,237.43
2023-03-15T19:53:49.472Z,237.26
2023-03-15T19:54:50.096Z,237.14
2023-03-15T19:55:49.418Z,236.84
2023-03-15T19:56:49.408Z,237.10
2023-03-15T19:57:49.372Z,235.63
2023-03-15T19:58:49.408Z,235.55
2023-03-15T19:59:49.352Z,236.25
2023-03-15T20:00:49.326Z,236.20
2023-03-15T20:01:49.365Z,236.27
2023-03-15T20:02:49.276Z,237.52
2023-03-15T20:03:49.333Z,237.55
2023-03-15T20:04:49.231Z,237.61
2023-03-15T20:05:49.214Z,237.51
2023-03-15T20:06:49.198Z,237.88
2023-03-15T20:07:49.210Z,236.70
2023-03-15T20:08:49.169Z,237.43
2023-03-15T20:09:49.169Z,237.96